首页
METAR-TAF:

METAR-TAF

机场 :

Wallops Flight Facility (NASA)

瓦勒普斯岛, 弗吉尼亚州, 美国

纬度: 37-56-26N, 经度: 075-27-47W, 海拔: 12米

当前天气观测

该预报发布于1小时和2分钟前的08:54 UTC
风速5节,风向南转西南
温度 22°C
湿度 94%
气压 1017 hPa
能見度: 16.1公里
多云层高于11000英尺

METAR: KWAL 260854Z AUTO 21005KT 10SM BKN110 22/21 A3002 RMK AO2 LTG DSNT S AND SW RAB02E16 SLP162 P0000 60037 T02170211 58007

时间: 05:56 (09:56 UTC)


TAF: 丢失

超过4000个机场的气象观测和天气预报(METAR&TAF报告)。

可查询的气象台以黄色和红色小点在地图上表示。

将鼠标移到小点上方,可查看气象台名称。

然后点击查看天气观测和预报。

如需切换地图:点击带黑十字的绿色按钮放大地图;点击带横线的绿色按钮缩小地图;或者点击绿色箭头查看邻近地区的地图。


METAR-TAF: